Terminal Aerodrome Forecast
Issued by NWS Denver/Boulder, CO

Home | Current Version | Previous Version | Text Only | Print | Product List | Glossary On
Versions: 1 2 3 4 5 6 7 8 9 10 11 12 13 14 15 16 17 18 19 20 21 22 23 24 25 26 27 28 29 30 31 32 33 34 35 36 37 38
000
FTUS45 KBOU 101136
TAFDEN
TAF
KDEN 101136Z 1012/1118 15006KT P6SM FEW200
      TEMPO 1012/1015 4SM BR FEW005 SCT200
     FM101900 14008KT P6SM FEW140 SCT220
     FM110000 17008KT P6SM SCT120 BKN180
     FM110400 24010KT P6SM SCT100 BKN150
     FM110700 35008KT P6SM BKN080 OVC120 PROB30 1108/1112 4SM -SN
      BKN050
     FM111200 04008KT P6SM SCT060 BKN120=

USA.gov is the U.S. government's official web portal to all federal, state and local government web resources and services.